To NAV CANADA Home Page Login to a new session Search on AWWS site Feedback and Comments Disclaimer Vers la page française équivalente Tips FAQ What's new on the site To the Forecasts and Observations / NOTAM section To "File a Flight Plan" website Publications and other links Update of the User's profile FIC Telephone Numbers My Weather Data Folder Route Weather Data Regional Weather Data Local Weather Data To the Forecasts and Observations / NOTAM section
Request Generated 03/27/2015 at 03:33:31 UTC . Weather information available at that time is displayed.

METAR/TAF

THUNDER BAY/ON    

METAR CYQT 270300Z 30005KT 15SM SKC M10/M16 A3021 RMK SLP247=
METAR CYQT 270200Z 34004KT 15SM SKC M08/M16 A3021 RMK SLP245=
METAR CYQT 270100Z 36005KT 20SM FEW050 M07/M17 A3019 RMK SC1 SLP239=

TAF CYQT 270138Z 2702/2714 36005KT P6SM FEW050
BECMG 2711/2713 VRB03KT
RMK NXT FCST BY 270800Z=
Your time UTC time
Weather data provided by Environment Canada and NAV CANADA